Time;durP1;ratioP1;P1;durP2;ratioP2;P2;SDS_P1;SDS_P2;PMS_P1;PMS_P2;Temp;Humidity;BMP_temperature;BMP_pressure;BME280_temperature;BME280_humidity;BME280_pressure;Samples;Min_cycle;Max_cycle;Signal;HPM_P1;HPM_P2
2022/09/27 00:01:46;;;;;;;;;34.25;30.25;;;;;17.58;59.69;97213.31;4949749;28;104000;-80
2022/09/27 00:04:13;;;;;;;;;29.00;27.25;;;;;17.57;60.05;97195.28;4945917;28;102269;-80
2022/09/27 00:06:40;;;;;;;;;27.25;26.50;;;;;17.57;59.79;97198.84;4960145;28;103405;-80
2022/09/27 00:09:07;;;;;;;;;34.50;30.50;;;;;17.57;60.06;97195.28;4967921;28;102501;-80
2022/09/27 00:11:35;;;;;;;;;32.50;31.00;;;;;17.55;59.87;97184.66;4973538;28;104105;-81
2022/09/27 00:14:03;;;;;;;;;27.25;26.75;;;;;17.54;59.80;97182.19;4974245;28;102231;-80
2022/09/27 00:16:32;;;;;;;;;29.50;28.50;;;;;17.53;60.24;97178.63;4948641;28;103219;-80
2022/09/27 00:19:00;;;;;;;;;32.75;29.75;;;;;17.52;60.47;97174.25;4968775;28;102461;-80
2022/09/27 00:21:28;;;;;;;;;30.25;24.00;;;;;17.51;60.42;97178.13;4950248;28;104060;-80
2022/09/27 00:23:56;;;;;;;;;28.00;26.25;;;;;17.51;60.22;97180.84;4952494;28;102826;-80
2022/09/27 00:26:23;;;;;;;;;31.75;29.50;;;;;17.51;60.17;97166.34;4963461;28;103519;-80
2022/09/27 00:28:50;;;;;;;;;33.00;27.50;;;;;17.50;60.25;97168.28;4968905;28;102208;-80
2022/09/27 00:31:22;;;;;;;;;27.00;26.00;;;;;17.51;60.48;97163.63;4963188;28;103986;-80
2022/09/27 00:33:50;;;;;;;;;27.00;27.00;;;;;17.50;60.29;97157.34;4967786;28;102430;-80
2022/09/27 00:36:18;;;;;;;;;28.25;26.50;;;;;17.52;60.45;97159.78;4961617;28;102027;-80
2022/09/27 00:38:45;;;;;;;;;34.25;29.00;;;;;17.51;60.13;97161.72;4970518;28;102765;-80
2022/09/27 00:41:15;;;;;;;;;32.50;24.25;;;;;17.52;60.35;97160.59;4969013;28;104378;-80
2022/09/27 00:43:48;;;;;;;;;31.75;26.50;;;;;17.52;59.99;97149.66;4969528;28;102220;-80
2022/09/27 00:46:20;;;;;;;;;29.50;25.75;;;;;17.51;60.31;97152.69;4963972;28;102521;-80
2022/09/27 00:48:47;;;;;;;;;30.50;26.50;;;;;17.51;60.08;97153.50;4951808;28;102686;-79
2022/09/27 00:51:15;;;;;;;;;24.25;23.50;;;;;17.50;59.81;97145.59;4969289;28;104104;-80
2022/09/27 00:53:45;;;;;;;;;29.75;26.75;;;;;17.50;60.14;97145.59;4952262;28;102371;-80
2022/09/27 00:56:15;;;;;;;;;27.00;25.00;;;;;17.48;60.04;97137.66;4938020;28;103543;-80
2022/09/27 00:58:45;;;;;;;;;27.25;26.00;;;;;17.47;60.07;97135.22;4950361;28;102543;-80
2022/09/27 01:01:12;;;;;;;;;27.00;24.25;;;;;17.46;59.97;97131.69;4949702;28;104038;-80
2022/09/27 01:03:48;;;;;;;;;24.50;23.00;;;;;17.45;60.82;97127.31;4946856;28;102344;-80
2022/09/27 01:06:16;;;;;;;;;25.25;25.00;;;;;17.45;60.41;97132.75;4938983;28;102641;-80
2022/09/27 01:08:55;;;;;;;;;28.75;24.50;;;;;17.43;59.96;97126.75;4939019;28;102588;-78
2022/09/27 01:11:57;;;;;;;;;27.00;25.00;;;;;17.42;60.18;97125.13;4966212;28;108012;-80
2022/09/27 01:15:11;;;;;;;;;27.75;26.25;;;;;17.42;59.68;97121.59;4953286;28;102200;-80
2022/09/27 01:18:13;;;;;;;;;28.25;27.25;;;;;17.42;59.69;97124.31;4960290;28;107736;-80
2022/09/27 01:21:29;;;;;;;;;30.75;26.75;;;;;17.42;59.59;97111.47;4966940;28;102586;-80
2022/09/27 01:24:18;;;;;;;;;28.25;26.50;;;;;17.42;60.03;97100.53;4967136;28;108174;-80
2022/09/27 01:27:04;;;;;;;;;27.75;25.00;;;;;17.42;59.92;97106.00;4958230;28;102440;-80
2022/09/27 01:29:31;;;;;;;;;29.00;25.50;;;;;17.43;60.25;97102.16;4953735;28;102223;-80
2022/09/27 01:32:07;;;;;;;;;26.00;23.25;;;;;17.43;59.89;97093.97;4962401;28;102471;-80
2022/09/27 01:35:02;;;;;;;;;27.75;24.75;;;;;17.42;60.17;97095.88;4966184;28;108520;-81
2022/09/27 01:38:06;;;;;;;;;32.75;27.50;;;;;17.40;60.09;97081.69;4948453;28;102191;-80
2022/09/27 01:40:55;;;;;;;;;31.00;27.25;;;;;17.40;60.44;97081.69;4966077;28;102450;-80
2022/09/27 01:43:54;;;;;;;;;28.00;26.75;;;;;17.39;60.07;97076.50;4957708;28;102524;-80
2022/09/27 01:46:31;;;;;;;;;27.75;25.50;;;;;17.38;60.52;97074.88;4942909;28;108635;-80
2022/09/27 01:48:58;;;;;;;;;26.75;26.00;;;;;17.37;59.74;97070.50;4942766;28;102296;-80
2022/09/27 01:51:29;;;;;;;;;28.00;24.75;;;;;17.36;60.08;97075.16;4945941;28;102296;-80
2022/09/27 01:53:58;;;;;;;;;27.50;25.75;;;;;17.35;60.02;97072.69;4939964;28;102439;-80
2022/09/27 01:56:29;;;;;;;;;24.25;20.50;;;;;17.34;60.06;97066.41;4936226;28;103850;-80
2022/09/27 01:59:06;;;;;;;;;22.00;20.25;;;;;17.34;60.13;97060.13;4936760;28;102697;-80
2022/09/27 02:01:33;;;;;;;;;25.25;23.75;;;;;17.33;60.51;97066.72;4942085;28;102335;-80
2022/09/27 02:04:00;;;;;;;;;27.50;26.75;;;;;17.33;60.41;97058.50;4968559;28;102311;-80
2022/09/27 02:06:34;;;;;;;;;22.75;21.25;;;;;17.32;59.99;97051.41;4967915;28;104060;-80
2022/09/27 02:09:08;;;;;;;;;29.50;25.75;;;;;17.32;60.44;97048.69;4934772;28;102347;-80
2022/09/27 02:11:37;;;;;;;;;24.25;22.25;;;;;17.33;59.58;97053.06;4952333;28;102456;-80
2022/09/27 02:14:14;;;;;;;;;26.00;22.75;;;;;17.33;59.94;97047.59;4963652;28;102381;-81
2022/09/27 02:16:56;;;;;;;;;29.50;26.25;;;;;17.34;60.18;97049.19;4953887;28;104066;-80
2022/09/27 02:19:45;;;;;;;;;27.75;25.50;;;;;17.33;59.76;97042.13;4950063;28;102350;-80
2022/09/27 02:22:17;;;;;;;;;28.50;23.00;;;;;17.32;59.76;97044.03;4965036;28;109915;-80
2022/09/27 02:24:53;;;;;;;;;25.75;22.25;;;;;17.32;59.86;97035.84;4961904;28;102694;-80
2022/09/27 02:27:26;;;;;;;;;25.25;21.75;;;;;17.32;59.59;97032.28;4949140;28;104058;-80
2022/09/27 02:30:12;;;;;;;;;27.75;25.75;;;;;17.31;60.27;97019.72;4952123;28;102359;-81
2022/09/27 02:32:39;;;;;;;;;26.00;24.00;;;;;17.30;60.04;97034.47;4947495;28;105509;-80
2022/09/27 02:35:21;;;;;;;;;22.25;20.00;;;;;17.29;59.51;97030.91;4967420;28;102924;-81
2022/09/27 02:37:48;;;;;;;;;25.00;23.25;;;;;17.28;59.69;97028.50;4946931;28;104062;-80
2022/09/27 02:40:16;;;;;;;;;26.75;24.75;;;;;17.27;60.27;97027.66;4934548;28;103549;-80
2022/09/27 02:42:43;;;;;;;;;23.00;22.50;;;;;17.26;59.78;97025.22;4966775;28;102474;-80
2022/09/27 02:45:10;;;;;;;;;21.50;21.50;;;;;17.25;59.77;97018.09;4950585;28;104555;-80
2022/09/27 02:47:56;;;;;;;;;24.50;24.00;;;;;17.24;60.24;97017.31;4968460;28;104139;-80
2022/09/27 02:50:32;;;;;;;;;25.00;22.50;;;;;17.23;59.92;97009.38;4960927;28;102394;-80
2022/09/27 02:53:11;;;;;;;;;27.75;22.50;;;;;17.22;60.43;97008.56;4935549;28;102253;-80
2022/09/27 02:56:02;;;;;;;;;23.75;22.25;;;;;17.22;60.53;97015.94;4963753;28;102340;-80
2022/09/27 02:58:41;;;;;;;;;23.50;22.75;;;;;17.22;60.70;97011.31;4969487;28;108891;-80
2022/09/27 03:01:14;;;;;;;;;21.00;19.25;;;;;17.23;59.57;97023.06;4953905;28;102259;-81
2022/09/27 03:03:52;;;;;;;;;14.75;13.50;;;;;17.23;60.32;97014.84;4954090;28;103436;-80
2022/09/27 03:06:19;;;;;;;;;24.00;23.50;;;;;17.23;59.80;97007.47;4939300;28;102638;-80
2022/09/27 03:08:46;;;;;;;;;24.50;23.00;;;;;17.24;59.91;97000.09;4933899;28;104058;-80
2022/09/27 03:11:14;;;;;;;;;24.00;22.25;;;;;17.24;60.49;97003.66;4952762;28;102624;-80
2022/09/27 03:13:42;;;;;;;;;22.75;22.25;;;;;17.24;60.30;96989.19;4967747;28;104336;-81
2022/09/27 03:16:29;;;;;;;;;19.25;19.00;;;;;17.23;59.89;96995.72;4957918;28;102630;-80
2022/09/27 03:18:56;;;;;;;;;26.75;23.50;;;;;17.21;60.42;96996.00;4961937;28;104501;-80
2022/09/27 03:21:23;;;;;;;;;28.75;26.00;;;;;17.20;60.13;96994.38;4971187;28;102541;-80
2022/09/27 03:23:50;;;;;;;;;23.75;20.00;;;;;17.20;60.29;96993.56;4967166;28;104578;-80
2022/09/27 03:26:17;;;;;;;;;25.25;23.25;;;;;17.19;59.69;96992.75;4967870;28;102219;-81
2022/09/27 03:28:44;;;;;;;;;29.75;24.25;;;;;17.19;60.65;96991.94;4968182;28;104044;-81
2022/09/27 03:31:11;;;;;;;;;22.75;21.75;;;;;17.17;60.38;96996.84;4965566;28;102601;-81
2022/09/27 03:33:38;;;;;;;;;22.75;21.00;;;;;17.15;60.18;96994.44;4962616;28;102204;-80
2022/09/27 03:36:06;;;;;;;;;2.50;1.50;;;;;17.16;60.06;97001.50;4964842;28;102678;-81
2022/09/27 03:38:32;;;;;;;;;21.00;18.50;;;;;17.15;59.83;96988.97;4975074;28;104022;-81
2022/09/27 03:40:59;;;;;;;;;27.50;24.00;;;;;17.15;59.75;96985.41;4973621;28;102621;-81
2022/09/27 03:43:26;;;;;;;;;24.75;21.75;;;;;17.15;59.43;96985.41;4970868;28;102263;-80
2022/09/27 03:45:53;;;;;;;;;23.25;21.50;;;;;17.15;59.67;96990.88;4968953;28;102045;-80
2022/09/27 03:48:20;;;;;;;;;24.00;22.25;;;;;17.15;59.79;96985.41;4969132;28;104289;-80
2022/09/27 03:50:53;;;;;;;;;28.00;23.75;;;;;17.15;60.19;96999.06;4969687;28;102452;-81
2022/09/27 03:53:20;;;;;;;;;22.00;22.00;;;;;17.15;59.30;96994.44;4971630;28;102449;-80
2022/09/27 03:55:47;;;;;;;;;21.50;20.00;;;;;17.14;59.61;96987.31;4967077;28;102535;-81
2022/09/27 03:58:14;;;;;;;;;19.75;18.75;;;;;17.15;59.42;96988.13;4972325;28;104049;-81
2022/09/27 04:00:42;;;;;;;;;27.00;23.50;;;;;17.15;59.12;96986.22;4971347;28;102380;-80
2022/09/27 04:03:10;;;;;;;;;23.50;21.75;;;;;17.14;59.72;96984.59;4968076;28;104572;-81
2022/09/27 04:05:37;;;;;;;;;19.00;17.00;;;;;17.13;60.38;96987.59;4970873;28;102465;-81
2022/09/27 04:08:09;;;;;;;;;20.75;19.75;;;;;17.12;59.64;96973.13;4970259;28;104050;-80
2022/09/27 04:10:37;;;;;;;;;24.00;20.25;;;;;17.12;59.98;96975.03;4962319;28;102206;-80
2022/09/27 04:13:04;;;;;;;;;22.50;18.75;;;;;17.10;59.80;96972.59;4961714;28;104410;-80
2022/09/27 04:15:31;;;;;;;;;20.75;18.00;;;;;17.09;59.92;96981.06;4963637;28;102695;-81
2022/09/27 04:17:58;;;;;;;;;21.25;19.75;;;;;17.08;60.20;96973.97;4966878;28;104021;-80
2022/09/27 04:20:25;;;;;;;;;21.50;19.25;;;;;17.08;59.87;96968.50;4967964;28;103356;-81
2022/09/27 04:22:52;;;;;;;;;24.25;21.75;;;;;17.07;60.06;96961.41;4969059;28;102803;-81
2022/09/27 04:25:19;;;;;;;;;21.25;19.75;;;;;17.06;59.60;96957.88;4973037;28;102323;-81
2022/09/27 04:27:47;;;;;;;;;21.00;20.25;;;;;17.06;59.96;96965.25;4945745;28;104406;-81
2022/09/27 04:30:14;;;;;;;;;21.25;20.25;;;;;17.06;59.39;96973.44;4964442;28;102465;-80
2022/09/27 04:32:42;;;;;;;;;21.25;20.25;;;;;17.05;59.64;96971.81;4951339;28;102496;-80
2022/09/27 04:37:55;;;;;;;;;22.25;20.25;;;;;17.05;59.17;96964.44;4965973;28;104051;-81
2022/09/27 04:40:22;;;;;;;;;24.75;23.00;;;;;17.06;59.44;96970.72;4941111;28;102189;-81
2022/09/27 04:42:50;;;;;;;;;23.75;22.25;;;;;17.07;59.57;96958.66;4951457;28;102478;-81
2022/09/27 04:45:18;;;;;;;;;22.25;19.00;;;;;17.07;58.82;96958.66;4966053;28;102543;-81
2022/09/27 04:47:45;;;;;;;;;27.00;22.25;;;;;17.08;59.08;96957.56;4959700;28;104308;-80
2022/09/27 04:50:12;;;;;;;;;21.50;20.00;;;;;17.08;59.12;96954.84;4942992;28;102528;-80
2022/09/27 04:52:39;;;;;;;;;26.75;21.75;;;;;17.08;59.25;96957.56;4973315;28;102104;-80
2022/09/27 04:55:07;;;;;;;;;23.25;21.25;;;;;17.06;58.99;96955.16;4934982;28;102728;-81
2022/09/27 04:57:34;;;;;;;;;9.75;8.75;;;;;17.06;59.12;96954.31;4951464;28;104059;-80
2022/09/27 05:00:02;;;;;;;;;25.50;22.75;;;;;17.05;59.66;96953.50;4952176;28;102195;-80
2022/09/27 05:02:30;;;;;;;;;21.25;19.00;;;;;17.04;59.21;96943.69;4958445;28;102377;-80
2022/09/27 05:04:58;;;;;;;;;22.00;19.50;;;;;17.04;59.34;96945.59;4965076;28;102570;-81
2022/09/27 05:07:25;;;;;;;;;27.25;22.75;;;;;17.03;59.61;96943.94;4945003;28;103041;-80
2022/09/27 05:09:52;;;;;;;;;22.75;19.00;;;;;17.03;60.10;96943.94;4948848;28;102283;-80
2022/09/27 05:12:19;;;;;;;;;25.75;20.00;;;;;17.01;60.21;96946.16;4968225;28;102497;-80
2022/09/27 05:14:46;;;;;;;;;22.00;21.00;;;;;17.01;58.88;96946.16;4942195;28;102596;-80
2022/09/27 05:17:13;;;;;;;;;24.50;23.00;;;;;17.00;59.74;96939.06;4968602;28;104075;-80
2022/09/27 05:19:40;;;;;;;;;21.00;19.50;;;;;16.99;58.91;96938.25;4970360;28;102467;-80
2022/09/27 05:22:07;;;;;;;;;22.75;21.00;;;;;16.98;59.18;96931.16;4963790;28;102695;-81
2022/09/27 05:24:37;;;;;;;;;22.00;20.25;;;;;16.97;60.14;96929.53;4953307;28;103383;-80
2022/09/27 05:27:07;;;;;;;;;25.00;21.50;;;;;16.99;59.80;96934.69;4965414;28;108866;-80
2022/09/27 05:29:34;;;;;;;;;20.25;20.00;;;;;16.99;59.27;96932.78;4960145;28;102107;-80
2022/09/27 05:32:01;;;;;;;;;22.75;20.75;;;;;17.00;59.54;96933.59;4965752;28;102681;-80
2022/09/27 05:34:28;;;;;;;;;24.00;19.75;;;;;17.01;59.04;96935.25;4968836;28;103498;-80
2022/09/27 05:36:55;;;;;;;;;12.75;10.00;;;;;17.00;59.47;96931.69;4963674;28;104415;-80
2022/09/27 05:39:22;;;;;;;;;20.75;19.00;;;;;17.01;59.30;96919.69;4954836;28;102457;-80
2022/09/27 05:41:49;;;;;;;;;14.00;14.00;;;;;17.01;58.49;96929.78;4972854;28;102227;-81
2022/09/27 05:44:21;;;;;;;;;25.25;22.25;;;;;17.02;58.89;96929.47;4960069;28;102045;-80
2022/09/27 05:46:47;;;;;;;;;21.25;19.75;;;;;17.00;59.37;96922.69;4948119;28;104049;-80
2022/09/27 05:49:17;;;;;;;;;24.75;22.50;;;;;17.01;59.89;96924.31;4956446;28;103114;-81
2022/09/27 05:51:43;;;;;;;;;21.25;20.50;;;;;16.99;58.89;96923.78;4972666;28;102354;-80
2022/09/27 05:54:10;;;;;;;;;19.25;19.00;;;;;16.98;58.92;96922.94;4958899;28;102177;-81
2022/09/27 05:56:37;;;;;;;;;21.50;21.25;;;;;16.97;59.28;96926.81;4957541;28;104007;-81
2022/09/27 05:59:04;;;;;;;;;16.25;15.25;;;;;16.98;59.81;96924.88;4970431;28;102433;-80
2022/09/27 06:01:31;;;;;;;;;23.00;19.75;;;;;16.95;59.11;96927.09;4965159;28;102175;-81
2022/09/27 06:03:58;;;;;;;;;21.75;18.00;;;;;16.95;59.84;96921.63;4950990;28;102246;-80
2022/09/27 06:06:25;;;;;;;;;18.25;18.25;;;;;16.95;58.94;96921.63;4954436;28;104132;-80
2022/09/27 06:08:52;;;;;;;;;24.00;22.75;;;;;16.94;59.45;96919.97;4968542;28;103154;-80
2022/09/27 06:11:19;;;;;;;;;20.75;19.75;;;;;16.94;59.45;96917.25;4955789;28;102599;-81
2022/09/27 06:13:46;;;;;;;;;17.00;16.25;;;;;16.93;59.53;96932.00;4969052;28;102455;-81
2022/09/27 06:16:13;;;;;;;;;19.00;18.25;;;;;16.94;59.75;96936.34;4958633;28;103686;-81
2022/09/27 06:18:41;;;;;;;;;18.75;16.50;;;;;16.95;59.44;96938.00;4967388;28;102959;-81
2022/09/27 06:21:08;;;;;;;;;19.75;19.75;;;;;16.97;59.77;96939.63;4947360;28;102723;-81
2022/09/27 06:23:36;;;;;;;;;22.00;20.00;;;;;16.97;59.03;96942.38;4967790;28;102611;-80
2022/09/27 06:26:04;;;;;;;;;18.75;18.50;;;;;16.98;58.84;96933.06;4961233;28;109737;-81
2022/09/27 06:28:34;;;;;;;;;25.25;22.50;;;;;16.98;58.92;96925.69;4937824;28;102317;-80
2022/09/27 06:31:01;;;;;;;;;19.75;18.75;;;;;16.99;58.93;96934.69;4954979;28;102653;-81
2022/09/27 06:33:28;;;;;;;;;21.50;20.25;;;;;17.00;58.80;96933.59;4947973;28;102523;-80
2022/09/27 06:35:55;;;;;;;;;23.50;19.25;;;;;17.00;58.82;96933.59;4960622;28;104207;-80
2022/09/27 06:38:23;;;;;;;;;27.00;22.50;;;;;17.00;58.90;96925.41;4927774;28;102549;-80
2022/09/27 06:40:50;;;;;;;;;11.75;10.50;;;;;17.00;59.62;96926.22;4967994;28;102596;-80
2022/09/27 06:43:19;;;;;;;;;21.75;20.50;;;;;17.00;58.70;96928.97;4965350;28;102620;-80
2022/09/27 06:45:47;;;;;;;;;19.50;18.00;;;;;16.99;59.48;96924.59;4947880;28;104161;-80
2022/09/27 06:48:16;;;;;;;;;20.00;18.00;;;;;16.99;59.45;96921.88;4971479;28;101966;-80
2022/09/27 06:50:44;;;;;;;;;20.50;16.75;;;;;17.00;58.94;96917.22;4944304;28;102585;-80
2022/09/27 06:53:12;;;;;;;;;15.75;14.00;;;;;17.00;59.28;96915.31;4954703;28;102776;-80
2022/09/27 06:55:39;;;;;;;;;18.75;16.00;;;;;16.99;59.02;96912.84;4957287;28;104043;-80
2022/09/27 07:00:52;;;;;;;;;19.50;17.75;;;;;16.98;59.94;96909.31;4940554;28;102295;-80
2022/09/27 07:03:21;;;;;;;;;21.00;19.00;;;;;16.99;58.89;96905.47;4945964;28;103463;-80
2022/09/27 07:05:56;;;;;;;;;20.50;18.25;;;;;16.99;59.28;96904.66;4961612;28;103988;-80
2022/09/27 07:08:25;;;;;;;;;20.75;18.50;;;;;17.00;58.89;96906.28;4944838;28;102512;-80
2022/09/27 07:10:54;;;;;;;;;19.50;19.00;;;;;17.01;58.87;96897.84;4967453;28;102149;-80
2022/09/27 07:13:21;;;;;;;;;17.00;16.75;;;;;17.02;58.78;96893.19;4965767;28;102460;-80
2022/09/27 07:15:48;;;;;;;;;17.75;17.50;;;;;17.03;58.95;96892.06;4955457;28;103702;-80
2022/09/27 07:18:15;;;;;;;;;17.50;16.00;;;;;17.04;58.68;96890.97;4955513;28;102059;-80
2022/09/27 07:20:42;;;;;;;;;17.75;17.75;;;;;17.04;58.55;96886.34;4967875;28;102342;-80
2022/09/27 07:23:09;;;;;;;;;19.50;18.50;;;;;17.05;59.02;96879.78;4971609;28;102243;-80
2022/09/27 07:25:36;;;;;;;;;18.25;17.25;;;;;17.05;59.15;96882.50;4948218;28;103915;-81
2022/09/27 07:28:08;;;;;;;;;17.25;17.00;;;;;17.06;58.48;96891.53;4972905;28;102299;-80
2022/09/27 07:30:36;;;;;;;;;21.00;17.00;;;;;17.05;59.12;96892.63;4945095;28;102535;-80
2022/09/27 07:33:04;;;;;;;;;19.50;18.25;;;;;17.06;58.36;96902.44;4949702;28;102570;-80
2022/09/27 07:35:31;;;;;;;;;20.00;17.00;;;;;17.06;58.10;96897.81;4965980;28;104387;-80
2022/09/27 07:37:58;;;;;;;;;16.50;16.25;;;;;17.06;58.98;96900.53;4972051;28;102584;-80
2022/09/27 07:40:25;;;;;;;;;20.25;19.25;;;;;17.07;58.63;96901.31;4959180;28;102175;-80
2022/09/27 07:42:55;;;;;;;;;9.25;8.00;;;;;17.06;59.22;96897.81;4944751;28;102558;-80
2022/09/27 07:45:23;;;;;;;;;18.50;17.00;;;;;17.08;58.81;96902.97;4948634;28;104030;-80
2022/09/27 07:47:50;;;;;;;;;16.25;15.75;;;;;17.08;58.56;96902.97;4949586;28;102200;-80
2022/09/27 07:50:17;;;;;;;;;15.25;15.00;;;;;17.09;59.07;96904.59;4955829;28;102147;-80
2022/09/27 07:52:45;;;;;;;;;17.00;15.25;;;;;17.08;58.40;96895.59;4945402;28;102555;-80
2022/09/27 07:55:13;;;;;;;;;20.00;19.00;;;;;17.10;59.22;96889.84;4953728;28;104023;-80
2022/09/27 07:57:40;;;;;;;;;18.00;17.00;;;;;17.09;59.44;96888.22;4954322;28;102600;-80
2022/09/27 08:00:09;;;;;;;;;17.50;15.00;;;;;17.09;58.77;96889.03;4969871;28;102341;-80
2022/09/27 08:02:36;;;;;;;;;19.25;17.00;;;;;17.12;58.11;96884.91;4957242;28;102616;-81
2022/09/27 08:05:04;;;;;;;;;14.50;14.50;;;;;17.11;58.33;96880.56;4958664;28;104039;-79
2022/09/27 08:07:31;;;;;;;;;22.50;19.25;;;;;17.13;57.91;96881.06;4972411;28;103334;-80
2022/09/27 08:09:58;;;;;;;;;19.00;17.00;;;;;17.12;58.86;96880.25;4963972;28;102395;-80
2022/09/27 08:12:25;;;;;;;;;15.50;14.25;;;;;17.13;58.98;96879.16;4951674;28;102741;-80
2022/09/27 08:14:53;;;;;;;;;17.50;15.25;;;;;17.14;58.55;96874.53;4936606;28;104035;-79
2022/09/27 08:17:20;;;;;;;;;16.75;14.50;;;;;17.14;59.06;96874.53;4958879;28;102366;-79
2022/09/27 08:19:48;;;;;;;;;18.25;17.00;;;;;17.14;58.83;96871.78;4972922;28;102402;-79
2022/09/27 08:22:15;;;;;;;;;17.50;16.50;;;;;17.14;58.09;96875.34;4971115;28;102478;-79
2022/09/27 08:24:42;;;;;;;;;16.00;15.50;;;;;17.14;58.55;96871.78;4973384;28;104000;-80
2022/09/27 08:27:09;;;;;;;;;17.75;16.50;;;;;17.15;58.45;96878.88;4949143;28;102569;-80
2022/09/27 08:29:40;;;;;;;;;19.00;16.00;;;;;17.15;58.79;96876.16;4969173;28;102330;-79
2022/09/27 08:32:08;;;;;;;;;13.00;12.00;;;;;17.15;58.66;96876.97;4972110;28;102383;-80
2022/09/27 08:34:35;;;;;;;;;18.00;15.50;;;;;17.15;58.74;96871.50;4964930;28;103950;-79
2022/09/27 08:37:02;;;;;;;;;18.00;14.00;;;;;17.16;58.95;96866.84;4961073;28;102632;-80
2022/09/27 08:39:30;;;;;;;;;16.00;16.00;;;;;17.16;58.50;96866.84;4967220;28;102192;-80
2022/09/27 08:42:02;;;;;;;;;16.50;16.50;;;;;17.17;59.01;96863.84;4972801;28;102528;-79
2022/09/27 08:44:49;;;;;;;;;19.50;16.00;;;;;17.18;58.12;96862.75;4967860;28;104020;-80
2022/09/27 08:47:17;;;;;;;;;15.00;14.50;;;;;17.17;57.98;96863.00;4917454;28;102263;-79
2022/09/27 08:50:07;;;;;;;;;11.00;11.00;;;;;17.19;58.48;96855.38;4964646;28;102477;-80
2022/09/27 08:52:40;;;;;;;;;15.00;15.00;;;;;17.20;58.27;96857.00;4964053;28;102197;-79
2022/09/27 08:55:42;;;;;;;;;17.00;16.00;;;;;17.20;58.85;96854.28;4930167;28;108917;-80
2022/09/27 08:58:31;;;;;;;;;16.75;13.75;;;;;17.21;58.00;96853.16;4945911;28;102468;-80
2022/09/27 09:01:05;;;;;;;;;17.25;16.00;;;;;17.23;58.21;96848.22;4953806;28;103169;-79
2022/09/27 09:03:37;;;;;;;;;16.25;15.00;;;;;17.23;59.03;96845.50;4946379;28;103274;-79
2022/09/27 09:06:31;;;;;;;;;15.00;13.50;;;;;17.22;58.30;96846.59;4954421;28;108752;-79
2022/09/27 09:09:32;;;;;;;;;14.50;12.00;;;;;17.23;58.94;96842.75;4947393;28;102532;-79
2022/09/27 09:15:11;;;;;;;;;14.75;13.50;;;;;17.23;58.98;96835.38;4966833;28;102828;-79
2022/09/27 09:17:43;;;;;;;;;13.00;11.75;;;;;17.23;57.98;96829.09;4944784;28;108943;-80
2022/09/27 09:20:16;;;;;;;;;1.75;1.00;;;;;17.23;58.65;96829.94;4933664;28;102593;-81
2022/09/27 09:23:05;;;;;;;;;13.50;13.25;;;;;17.23;58.38;96819.00;4967220;28;102657;-79
2022/09/27 09:26:26;;;;;;;;;15.75;13.75;;;;;17.24;58.28;96815.16;4964806;28;102314;-79
2022/09/27 09:29:03;;;;;;;;;14.50;14.00;;;;;17.24;58.85;96804.25;4851922;28;109170;-79
2022/09/27 09:31:50;;;;;;;;;12.25;12.00;;;;;17.26;58.77;96809.41;4939255;28;103522;-80
2022/09/27 09:34:39;;;;;;;;;11.50;11.50;;;;;17.26;58.30;96803.94;4953955;28;102408;-79
2022/09/27 09:37:29;;;;;;;;;15.50;13.50;;;;;17.27;58.90;96794.66;4951400;28;103872;-81
2022/09/27 09:39:58;;;;;;;;;12.50;12.00;;;;;17.28;58.57;96799.03;4934552;28;108558;-79
2022/09/27 09:42:30;;;;;;;;;15.75;13.00;;;;;17.29;58.39;96789.72;4951442;28;102570;-79
2022/09/27 09:45:01;;;;;;;;;13.25;13.00;;;;;17.29;58.68;96795.19;4946294;28;102180;-79
2022/09/27 09:47:35;;;;;;;;;13.25;13.25;;;;;17.30;58.05;96783.13;4953227;28;102607;-79
2022/09/27 09:50:13;;;;;;;;;15.75;13.00;;;;;17.30;58.59;96778.50;4959517;28;110012;-79
2022/09/27 09:52:42;;;;;;;;;8.25;5.75;;;;;17.30;58.31;96775.75;4936317;28;102587;-79
2022/09/27 09:55:22;;;;;;;;;11.00;10.50;;;;;17.31;58.82;96771.13;4954095;28;102563;-79
2022/09/27 09:58:01;;;;;;;;;15.00;11.75;;;;;17.32;58.23;96762.63;4954638;28;102670;-79
2022/09/27 10:00:28;;;;;;;;;13.50;12.50;;;;;17.32;58.69;96757.19;4968021;28;103969;-79
2022/09/27 10:02:58;;;;;;;;;14.50;12.75;;;;;17.33;58.52;96761.53;4939330;28;102745;-79
2022/09/27 10:05:27;;;;;;;;;13.75;12.50;;;;;17.33;58.92;96758.81;4968144;28;102155;-79
2022/09/27 10:07:59;;;;;;;;;14.00;12.50;;;;;17.34;59.12;96762.34;4954407;28;102820;-79
2022/09/27 10:10:26;;;;;;;;;13.00;12.75;;;;;17.34;57.63;96765.06;4935197;28;104184;-79
2022/09/27 10:12:54;;;;;;;;;12.25;12.00;;;;;17.34;58.77;96759.59;4962701;28;102157;-79
2022/09/27 10:15:22;;;;;;;;;13.50;12.50;;;;;17.34;58.27;96759.59;4937748;28;102488;-79
2022/09/27 10:17:52;;;;;;;;;14.50;12.50;;;;;17.34;58.31;96762.34;4950713;28;102667;-79
2022/09/27 10:20:45;;;;;;;;;12.75;11.50;;;;;17.35;58.33;96753.03;4945404;28;104040;-80
2022/09/27 10:23:14;;;;;;;;;11.00;10.00;;;;;17.35;58.17;96750.31;4947071;28;102356;-79
2022/09/27 10:25:51;;;;;;;;;10.50;10.00;;;;;17.36;57.82;96746.47;4973359;28;103228;-79
2022/09/27 10:28:38;;;;;;;;;11.75;10.50;;;;;17.35;57.85;96748.41;4974931;28;102256;-79
2022/09/27 10:31:11;;;;;;;;;11.33;10.33;;;;;17.37;58.10;96753.56;4918540;28;108679;-79
2022/09/27 10:33:58;;;;;;;;;11.00;10.75;;;;;17.38;58.66;96747.00;4925892;28;102606;-79
2022/09/27 10:36:29;;;;;;;;;13.75;12.00;;;;;17.39;58.40;96746.72;4955222;28;102338;-79
2022/09/27 10:38:59;;;;;;;;;13.00;13.00;;;;;17.38;58.34;96734.13;4961370;28;104674;-79
2022/09/27 10:41:33;;;;;;;;;14.75;12.00;;;;;17.40;58.57;96736.59;4955470;28;103627;-79
2022/09/27 10:44:18;;;;;;;;;11.25;11.25;;;;;17.41;57.60;96735.50;4955349;28;102501;-79
2022/09/27 10:46:48;;;;;;;;;13.25;11.00;;;;;17.41;58.15;96738.22;4950565;28;103295;-79
2022/09/27 10:49:24;;;;;;;;;10.25;9.00;;;;;17.42;58.23;96730.84;4950102;28;102457;-79
2022/09/27 10:51:59;;;;;;;;;11.75;11.00;;;;;17.41;57.99;96716.38;4957716;28;104545;-79
2022/09/27 10:54:31;;;;;;;;;13.25;12.00;;;;;17.42;58.13;96723.47;4970687;28;104864;-79
2022/09/27 10:57:21;;;;;;;;;10.67;10.67;;;;;17.44;58.13;96723.97;4941946;28;102232;-79
2022/09/27 10:59:55;;;;;;;;;10.00;10.00;;;;;17.43;58.05;96725.06;4943687;28;102272;-79
2022/09/27 11:02:26;;;;;;;;;12.25;11.75;;;;;17.44;57.69;96725.88;4937842;28;104193;-80
2022/09/27 11:05:13;;;;;;;;;11.75;11.50;;;;;17.45;58.03;96728.34;4960524;28;102249;-80
2022/09/27 11:07:55;;;;;;;;;11.33;10.00;;;;;17.46;57.98;96719.06;4929520;28;102431;-79
2022/09/27 11:10:27;;;;;;;;;11.00;10.50;;;;;17.46;58.08;96712.78;4940244;28;102309;-79
2022/09/27 11:13:13;;;;;;;;;11.67;11.00;;;;;17.46;57.54;96713.59;4937443;28;104202;-79
2022/09/27 11:15:55;;;;;;;;;10.00;10.00;;;;;17.47;58.33;96714.41;4955135;28;102574;-79
2022/09/27 11:18:49;;;;;;;;;11.67;10.00;;;;;17.47;57.77;96698.00;4939981;28;102257;-79
2022/09/27 11:21:40;;;;;;;;;10.67;9.33;;;;;17.48;58.19;96708.63;4948976;28;102387;-79
2022/09/27 11:24:22;;;;;;;;;12.33;11.33;;;;;17.48;58.65;96700.44;4951555;28;108915;-81
2022/09/27 11:26:59;;;;;;;;;9.75;9.25;;;;;17.49;58.21;96702.06;4947616;28;102176;-79
2022/09/27 11:29:36;;;;;;;;;6.67;6.67;;;;;17.50;58.75;96705.63;4934005;28;102319;-79
2022/09/27 11:32:34;;;;;;;;;11.25;10.50;;;;;17.51;58.37;96699.88;4923861;28;102146;-79
2022/09/27 11:35:18;;;;;;;;;11.25;10.75;;;;;17.51;58.83;96694.41;4921797;28;108320;-79
2022/09/27 11:38:16;;;;;;;;;10.50;9.50;;;;;17.52;58.88;96698.75;4946997;28;102297;-80
2022/09/27 11:41:49;;;;;;;;;11.33;9.00;;;;;17.52;58.19;96696.00;4916779;28;102651;-79
2022/09/27 11:44:34;;;;;;;;;9.67;9.67;;;;;17.54;58.70;96690.25;4906493;28;102778;-79